Time;durP1;ratioP1;P1;durP2;ratioP2;P2;SDS_P1;SDS_P2;PMS_P1;PMS_P2;Temp;Humidity;BMP_temperature;BMP_pressure;BME280_temperature;BME280_humidity;BME280_pressure;Samples;Min_cycle;Max_cycle;Signal;HPM_P1;HPM_P2
2021/12/04 00:00:00;;;;;;;1.88;1.52;;;;;;;3.31;86.91;94111.56;5032418;28;20200;-77
2021/12/04 00:02:27;;;;;;;1.75;1.42;;;;;;;3.33;87.21;94123.56;5031469;28;20212;-76
2021/12/04 00:04:57;;;;;;;4.50;1.90;;;;;;;3.44;86.90;94130.34;5031547;28;20215;-76
2021/12/04 00:07:24;;;;;;;2.97;1.67;;;;;;;3.42;86.52;94121.81;5018729;28;20265;-76
2021/12/04 00:09:57;;;;;;;0.73;0.73;;;;;;;3.25;86.30;94105.53;5024936;28;20260;-74
2021/12/04 00:12:24;;;;;;;2.47;1.58;;;;;;;3.23;86.62;94113.06;5024346;28;20562;-76
2021/12/04 00:14:52;;;;;;;1.27;0.93;;;;;;;3.31;86.10;94115.03;5017296;28;20295;-76
2021/12/04 00:17:19;;;;;;;1.80;1.52;;;;;;;3.29;86.23;94113.75;5030098;28;20620;-74
2021/12/04 00:19:46;;;;;;;1.10;1.00;;;;;;;3.37;85.68;94113.88;5019105;28;20196;-77
2021/12/04 00:22:14;;;;;;;2.92;1.70;;;;;;;3.22;85.58;94116.81;5016399;28;20235;-77
2021/12/04 00:24:41;;;;;;;0.65;0.65;;;;;;;3.18;85.85;94127.31;5019512;28;20208;-77
2021/12/04 00:27:08;;;;;;;1.90;1.55;;;;;;;3.22;85.62;94112.25;5031287;28;20286;-76
2021/12/04 00:29:35;;;;;;;1.48;1.33;;;;;;;3.40;86.16;94107.94;5022919;28;20236;-77
2021/12/04 00:32:08;;;;;;;1.92;1.20;;;;;;;3.31;85.39;94115.03;5026661;28;20216;-76
2021/12/04 00:34:39;;;;;;;1.45;1.35;;;;;;;3.37;85.35;94124.59;5020977;28;20221;-76
2021/12/04 00:51:00;;;;;;;1.92;1.67;;;;;;;3.22;86.03;94117.63;5078756;28;20201;-77
2021/12/04 00:53:27;;;;;;;4.47;1.38;;;;;;;3.20;86.22;94125.13;5087931;28;20217;-77
2021/12/04 00:55:55;;;;;;;3.42;1.40;;;;;;;3.27;85.69;94124.78;5076478;28;20662;-77
2021/12/04 00:58:22;;;;;;;1.30;1.10;;;;;;;3.27;85.24;94119.41;5075942;28;20229;-79
2021/12/04 01:00:48;;;;;;;4.68;1.83;;;;;;;3.17;85.27;94108.88;5079525;28;20199;-77
2021/12/04 01:03:15;;;;;;;2.22;1.65;;;;;;;3.17;85.50;94106.19;5074534;28;20198;-77
2021/12/04 01:05:42;;;;;;;2.90;1.90;;;;;;;3.24;84.92;94101.25;5075440;28;20199;-78
2021/12/04 01:08:09;;;;;;;1.40;1.17;;;;;;;3.16;85.26;94092.00;5080568;28;20693;-77
2021/12/04 01:10:36;;;;;;;0.63;0.63;;;;;;;3.21;85.11;94096.50;5079280;28;20613;-78
2021/12/04 01:13:10;;;;;;;2.90;2.10;;;;;;;3.25;85.82;94075.28;5068136;28;20238;-78
2021/12/04 01:15:38;;;;;;;2.65;2.05;;;;;;;3.17;85.59;94072.19;5066915;28;20249;-78
2021/12/04 01:18:04;;;;;;;2.08;1.67;;;;;;;3.07;85.94;94082.28;5073439;28;20238;-78
2021/12/04 01:20:31;;;;;;;2.70;2.15;;;;;;;3.18;86.40;94067.63;5073979;28;20627;-78
2021/12/04 01:22:58;;;;;;;1.77;1.35;;;;;;;3.09;85.75;94064.88;5080087;28;20210;-76
2021/12/04 01:25:25;;;;;;;3.05;1.05;;;;;;;3.03;86.03;94065.22;5080545;28;20206;-80
2021/12/04 01:27:54;;;;;;;3.25;2.25;;;;;;;3.03;86.23;94065.22;5074494;28;20198;-79
2021/12/04 01:30:22;;;;;;;2.20;1.58;;;;;;;3.05;86.11;94063.84;5073764;28;20231;-77
2021/12/04 01:32:49;;;;;;;1.98;1.30;;;;;;;2.99;85.70;94050.88;5078571;28;20203;-77
2021/12/04 01:35:16;;;;;;;1.95;1.35;;;;;;;3.04;86.15;94046.22;5080848;28;20199;-77
2021/12/04 01:37:43;;;;;;;2.72;1.73;;;;;;;3.15;86.05;94052.16;5075108;28;20199;-78
2021/12/04 01:40:11;;;;;;;1.77;1.13;;;;;;;3.17;85.02;94066.06;5073103;28;20223;-79
2021/12/04 01:42:37;;;;;;;4.40;1.90;;;;;;;3.15;85.56;94062.88;5078346;28;20616;-78
2021/12/04 01:45:05;;;;;;;1.83;1.40;;;;;;;3.01;85.53;94070.06;5080253;28;20701;-78
2021/12/04 01:47:34;;;;;;;2.42;1.85;;;;;;;2.97;85.20;94061.06;5076454;28;20301;-79
2021/12/04 01:50:01;;;;;;;2.60;2.03;;;;;;;2.95;85.33;94063.25;5067891;28;20285;-78
2021/12/04 01:52:29;;;;;;;2.50;1.50;;;;;;;2.88;84.88;94057.47;5063694;28;20211;-77
2021/12/04 01:54:57;;;;;;;2.58;1.90;;;;;;;2.84;85.35;94067.97;5066762;28;20667;-76
2021/12/04 01:57:24;;;;;;;1.67;1.38;;;;;;;2.83;84.78;94069.84;5063668;28;20206;-75
2021/12/04 01:59:52;;;;;;;5.00;2.72;;;;;;;2.82;85.86;94056.78;5059393;28;20770;-77
2021/12/04 02:02:19;;;;;;;3.28;2.30;;;;;;;2.81;85.54;94055.97;5062814;28;20213;-77
2021/12/04 02:04:48;;;;;;;3.78;2.10;;;;;;;2.89;84.94;94059.06;5066708;28;20199;-77
2021/12/04 02:07:16;;;;;;;3.53;1.50;;;;;;;2.76;85.29;94069.41;5064543;28;20240;-76
2021/12/04 02:09:43;;;;;;;2.92;2.28;;;;;;;2.88;85.27;94079.66;5059706;28;20623;-77
2021/12/04 02:12:10;;;;;;;3.47;2.28;;;;;;;2.82;85.84;94065.59;5060763;28;20203;-79
2021/12/04 02:14:40;;;;;;;3.10;2.35;;;;;;;2.81;85.38;94074.69;5066656;28;20196;-78
2021/12/04 02:17:08;;;;;;;2.65;2.00;;;;;;;2.81;85.91;94069.34;5065404;28;20633;-76
2021/12/04 02:19:35;;;;;;;5.10;2.75;;;;;;;2.85;85.42;94065.00;5059266;28;20230;-79
2021/12/04 02:22:03;;;;;;;2.72;1.88;;;;;;;2.98;85.78;94073.38;5059964;28;20208;-77
2021/12/04 02:24:30;;;;;;;3.15;1.80;;;;;;;2.94;84.91;94062.44;5046198;28;20207;-76
2021/12/04 02:26:57;;;;;;;3.83;2.08;;;;;;;2.89;85.58;94064.41;5059342;28;20200;-76
2021/12/04 02:29:24;;;;;;;1.95;1.50;;;;;;;2.76;84.97;94056.03;5045687;28;20272;-75
2021/12/04 02:31:53;;;;;;;2.78;2.05;;;;;;;2.74;85.75;94058.22;5058544;28;20280;-76
2021/12/04 02:34:21;;;;;;;1.83;1.40;;;;;;;2.72;85.43;94057.75;5070757;28;20592;-76
2021/12/04 02:36:48;;;;;;;6.30;3.00;;;;;;;2.77;86.39;94054.97;5072010;28;20228;-76
2021/12/04 02:39:30;;;;;;;5.97;3.47;;;;;;;2.88;85.50;94057.47;5059948;28;20288;-76
2021/12/04 02:41:57;;;;;;;3.85;2.30;;;;;;;2.89;85.24;94067.06;5058938;28;20203;-77
2021/12/04 02:44:33;;;;;;;5.05;2.85;;;;;;;2.87;85.73;94059.34;5062389;28;20281;-77
2021/12/04 02:47:00;;;;;;;4.18;2.70;;;;;;;2.93;85.95;94058.19;5065544;28;20253;-76
2021/12/04 02:49:27;;;;;;;5.07;2.90;;;;;;;3.02;85.09;94058.28;5063682;28;20203;-77
2021/12/04 02:51:54;;;;;;;4.10;2.30;;;;;;;3.09;85.06;94064.06;5059074;28;20217;-76
2021/12/04 02:54:21;;;;;;;5.30;3.40;;;;;;;2.92;85.61;94063.81;5061424;28;20257;-76
2021/12/04 02:56:51;;;;;;;7.00;3.25;;;;;;;2.97;85.58;94056.53;5066671;28;20228;-76
2021/12/04 02:59:18;;;;;;;8.75;4.65;;;;;;;2.92;86.25;94042.41;5059490;28;20223;-76
2021/12/04 03:01:45;;;;;;;3.78;1.67;;;;;;;2.96;85.47;94046.09;5064239;28;20724;-75
2021/12/04 03:04:13;;;;;;;2.10;1.42;;;;;;;2.98;85.72;94041.25;5065516;28;20213;-75
2021/12/04 03:06:43;;;;;;;1.90;0.98;;;;;;;2.88;85.83;94036.84;5039521;28;20203;-76
2021/12/04 03:09:10;;;;;;;4.20;2.90;;;;;;;2.88;86.76;94042.22;5066119;28;20227;-75
2021/12/04 03:11:37;;;;;;;4.10;2.63;;;;;;;2.97;86.71;94039.69;5064136;28;20272;-75
2021/12/04 03:14:06;;;;;;;5.38;2.72;;;;;;;2.97;86.92;94050.38;5052959;28;20257;-76
2021/12/04 03:16:34;;;;;;;3.47;2.22;;;;;;;2.95;87.00;94044.50;5063459;28;20211;-76
2021/12/04 03:19:01;;;;;;;4.15;2.28;;;;;;;3.00;87.66;94044.44;5039709;28;20236;-78
2021/12/04 03:21:28;;;;;;;4.88;2.55;;;;;;;2.79;88.08;94034.06;5063178;28;20214;-76
2021/12/04 03:23:58;;;;;;;5.05;3.15;;;;;;;2.82;88.76;94049.53;5053476;28;20209;-76
2021/12/04 03:26:26;;;;;;;4.38;2.53;;;;;;;2.81;88.61;94050.63;5071498;28;20666;-76
2021/12/04 03:28:56;;;;;;;3.60;2.38;;;;;;;2.96;88.29;94048.78;5058010;28;20234;-76
2021/12/04 03:31:39;;;;;;;7.88;2.78;;;;;;;2.90;88.45;94044.59;5062076;28;20218;-76
2021/12/04 03:42:22;;;;;;;3.72;2.58;;;;;;;2.81;88.73;94061.31;5057642;28;20723;-76
2021/12/04 03:44:50;;;;;;;5.85;3.53;;;;;;;2.87;89.00;94061.25;5057599;28;20203;-76
2021/12/04 03:47:19;;;;;;;5.60;2.50;;;;;;;2.72;88.17;94059.63;5058514;28;20199;-76
2021/12/04 03:49:47;;;;;;;5.75;3.08;;;;;;;2.69;88.20;94070.88;5056062;28;20200;-79
2021/12/04 03:52:14;;;;;;;2.67;2.13;;;;;;;2.60;88.28;94062.72;5058871;28;20684;-77
2021/12/04 03:54:41;;;;;;;6.50;3.67;;;;;;;2.54;88.27;94068.44;5056457;28;20219;-79
2021/12/04 03:57:10;;;;;;;4.28;2.95;;;;;;;2.49;88.42;94067.44;5055554;28;20303;-75
2021/12/04 03:59:39;;;;;;;4.97;2.88;;;;;;;2.52;88.87;94070.63;5053108;28;20410;-77
2021/12/04 04:02:09;;;;;;;3.72;2.58;;;;;;;2.53;88.89;94075.69;5071117;28;20203;-77
2021/12/04 04:04:38;;;;;;;5.57;2.80;;;;;;;2.40;88.51;94069.19;5057222;28;20643;-78
2021/12/04 04:07:05;;;;;;;7.38;3.95;;;;;;;2.38;88.74;94075.91;5059943;28;20203;-77
2021/12/04 04:09:33;;;;;;;4.93;3.42;;;;;;;2.38;88.63;94076.69;5067894;28;20217;-76
2021/12/04 04:12:00;;;;;;;5.20;3.17;;;;;;;2.44;88.89;94090.78;5060320;28;20215;-76
2021/12/04 04:14:28;;;;;;;5.88;3.20;;;;;;;2.49;88.96;94078.13;5063930;28;20253;-77
2021/12/04 04:16:56;;;;;;;3.75;2.33;;;;;;;2.50;88.22;94078.91;5061862;28;20211;-80
2021/12/04 04:19:25;;;;;;;10.13;3.30;;;;;;;2.44;88.59;94091.59;5066114;28;20584;-79
2021/12/04 04:21:56;;;;;;;5.88;3.10;;;;;;;2.44;88.23;94083.56;5061458;28;20215;-78
2021/12/04 04:24:24;;;;;;;4.10;3.05;;;;;;;2.51;87.68;94088.53;5050699;28;20273;-78
2021/12/04 04:26:51;;;;;;;4.00;2.70;;;;;;;2.40;87.63;94090.56;5054002;28;20213;-77
2021/12/04 04:29:18;;;;;;;5.90;3.25;;;;;;;2.52;88.47;94087.44;5063937;28;20211;-77
2021/12/04 04:31:47;;;;;;;5.03;2.33;;;;;;;2.52;87.48;94087.44;5063269;28;20653;-77
2021/12/04 04:34:20;;;;;;;4.15;2.47;;;;;;;2.46;86.95;94097.41;5057039;28;20616;-77
2021/12/04 04:37:00;;;;;;;7.30;2.08;;;;;;;2.56;87.02;94099.16;5055517;28;20635;-78
2021/12/04 04:39:58;;;;;;;4.43;2.53;;;;;;;2.53;86.91;94093.59;5059951;28;20230;-78
2021/12/04 04:59:00;;;;;;;3.63;2.17;;;;;;;2.47;86.39;94127.59;5014868;28;20211;-75
2021/12/04 05:01:51;;;;;;;4.10;2.47;;;;;;;2.54;86.89;94128.06;5054253;28;20260;-77
2021/12/04 05:12:47;;;;;;;4.20;2.50;;;;;;;2.52;86.31;94122.19;5056445;28;20199;-77
2021/12/04 05:15:20;;;;;;;3.85;2.42;;;;;;;2.51;86.06;94120.59;5059900;28;20218;-77
2021/12/04 05:18:05;;;;;;;5.70;2.92;;;;;;;2.50;86.50;94117.13;5064072;28;20283;-77
2021/12/04 05:20:37;;;;;;;4.65;3.28;;;;;;;2.74;86.71;94103.66;5049923;28;20219;-78
2021/12/04 05:23:07;;;;;;;4.03;2.78;;;;;;;2.57;85.95;94094.59;5061707;28;20208;-77
2021/12/04 05:25:36;;;;;;;5.55;2.72;;;;;;;2.68;86.25;94104.84;5065938;28;20195;-77
2021/12/04 05:28:05;;;;;;;4.32;2.05;;;;;;;2.74;85.24;94090.31;5064134;28;20200;-78
2021/12/04 05:30:32;;;;;;;3.92;2.08;;;;;;;2.65;84.68;94097.41;5067174;28;20210;-78
2021/12/04 05:32:59;;;;;;;3.10;1.27;;;;;;;2.61;85.24;94099.06;5063591;28;20214;-77
2021/12/04 05:35:26;;;;;;;3.40;2.25;;;;;;;2.69;85.90;94098.41;5073540;28;20203;-77
2021/12/04 05:37:54;;;;;;;4.90;3.00;;;;;;;2.75;86.03;94102.59;5063509;28;20250;-76
2021/12/04 05:40:20;;;;;;;3.72;2.22;;;;;;;2.74;85.73;94101.00;5066648;28;20231;-75
2021/12/04 05:42:48;;;;;;;4.93;3.13;;;;;;;2.76;85.50;94104.19;5063473;28;20199;-76
2021/12/04 05:45:18;;;;;;;4.97;2.83;;;;;;;2.68;85.92;94107.53;5059922;28;20203;-76
2021/12/04 05:47:51;;;;;;;5.85;3.85;;;;;;;2.67;86.44;94108.63;5061035;28;20191;-76
2021/12/04 05:50:35;;;;;;;4.53;2.60;;;;;;;2.59;85.88;94103.94;5066766;28;20196;-74
2021/12/04 05:53:15;;;;;;;6.55;3.92;;;;;;;2.41;87.43;94104.72;5066929;28;20530;-75
2021/12/04 05:55:51;;;;;;;6.05;3.97;;;;;;;2.34;87.24;94113.09;5062559;28;20274;-76
2021/12/04 05:58:19;;;;;;;8.68;3.70;;;;;;;2.33;87.52;94116.03;5047104;28;20196;-75
2021/12/04 06:00:48;;;;;;;6.28;3.75;;;;;;;2.29;87.91;94115.06;5064099;28;20284;-75
2021/12/04 06:03:15;;;;;;;7.00;3.92;;;;;;;2.27;87.49;94106.53;5035921;28;20954;-75
2021/12/04 06:05:42;;;;;;;5.10;3.17;;;;;;;2.26;87.74;94126.31;5053094;28;20228;-75
2021/12/04 06:08:09;;;;;;;5.10;3.17;;;;;;;2.28;87.64;94118.81;5058029;28;20214;-75
2021/12/04 06:10:35;;;;;;;6.15;2.85;;;;;;;2.29;87.63;94131.09;5060691;28;20199;-75
2021/12/04 06:13:02;;;;;;;6.82;4.35;;;;;;;2.24;88.09;94128.47;5060670;28;20275;-76
2021/12/04 06:15:29;;;;;;;9.10;3.88;;;;;;;2.32;87.96;94136.66;5057202;28;20566;-74
2021/12/04 06:17:58;;;;;;;5.55;3.60;;;;;;;2.32;87.96;94135.88;5052334;28;20457;-73
2021/12/04 06:23:10;;;;;;;6.03;3.45;;;;;;;2.43;88.12;94134.63;5052320;28;20202;-74
2021/12/04 06:25:37;;;;;;;11.27;4.70;;;;;;;2.40;88.16;94122.63;5038526;28;20589;-74
2021/12/04 06:28:04;;;;;;;15.27;4.70;;;;;;;2.50;88.05;94127.84;5061039;28;20203;-74
2021/12/04 06:30:35;;;;;;;5.95;4.13;;;;;;;2.53;87.36;94125.66;5043203;28;20208;-75
2021/12/04 06:33:05;;;;;;;6.75;3.97;;;;;;;2.64;86.90;94130.56;5061140;28;20202;-74
2021/12/04 06:35:32;;;;;;;6.68;3.90;;;;;;;2.62;86.82;94124.72;5050908;28;20231;-74
2021/12/04 06:38:00;;;;;;;9.57;4.78;;;;;;;2.67;86.40;94138.03;5057946;28;20231;-75
2021/12/04 06:40:27;;;;;;;6.32;3.20;;;;;;;2.65;86.52;94134.84;5056066;28;20230;-75
2021/12/04 06:42:55;;;;;;;6.22;3.83;;;;;;;2.63;86.11;94152.25;5061136;28;20306;-74
2021/12/04 06:45:23;;;;;;;8.45;4.68;;;;;;;2.60;85.65;94145.59;5051227;28;20701;-76
2021/12/04 06:47:53;;;;;;;9.20;4.53;;;;;;;2.57;85.32;94150.75;5034388;28;20225;-73
2021/12/04 06:50:32;;;;;;;8.48;5.05;;;;;;;2.71;85.55;94155.09;5043040;28;20211;-74
2021/12/04 06:53:03;;;;;;;7.13;4.65;;;;;;;2.73;85.68;94152.88;5044901;28;20237;-75
2021/12/04 06:55:37;;;;;;;7.55;4.55;;;;;;;2.82;84.90;94151.16;5058887;28;20206;-76
2021/12/04 06:58:04;;;;;;;6.80;3.67;;;;;;;2.84;84.63;94138.31;5044459;28;20890;-74
2021/12/04 07:00:32;;;;;;;8.10;4.55;;;;;;;3.02;84.96;94138.53;5051503;28;20601;-75
2021/12/04 07:02:59;;;;;;;10.68;5.63;;;;;;;3.30;83.87;94147.44;5041083;28;20685;-75
2021/12/04 07:05:27;;;;;;;8.68;5.13;;;;;;;3.20;84.06;94141.19;5061416;28;20234;-77
2021/12/04 07:07:54;;;;;;;7.18;3.75;;;;;;;3.33;83.40;94138.84;5065260;28;20203;-77
2021/12/04 07:10:21;;;;;;;9.88;4.53;;;;;;;3.25;83.84;94143.00;5044501;28;20608;-76
2021/12/04 07:12:50;;;;;;;7.82;4.68;;;;;;;3.16;83.90;94152.75;5047699;28;20230;-76
2021/12/04 07:15:17;;;;;;;9.57;5.45;;;;;;;3.19;83.65;94165.56;5059668;28;20290;-76
2021/12/04 07:17:44;;;;;;;7.13;3.47;;;;;;;3.21;83.83;94163.41;5049949;28;20618;-75
2021/12/04 07:20:11;;;;;;;3.17;2.47;;;;;;;3.33;84.48;94165.59;5035595;28;20715;-75
2021/12/04 07:22:40;;;;;;;9.63;4.95;;;;;;;3.09;83.83;94171.09;5050687;28;20317;-76
2021/12/04 07:25:07;;;;;;;8.27;4.22;;;;;;;3.28;84.03;94168.38;5061207;28;20226;-75
2021/12/04 07:27:34;;;;;;;13.10;6.30;;;;;;;3.25;84.51;94168.97;5057345;28;20214;-75
2021/12/04 07:30:01;;;;;;;5.18;3.00;;;;;;;3.23;82.95;94163.91;5060828;28;20251;-74
2021/12/04 07:32:28;;;;;;;11.98;5.20;;;;;;;3.20;82.71;94167.16;5046778;28;20207;-75
2021/12/04 07:34:57;;;;;;;8.02;2.92;;;;;;;3.16;82.88;94166.16;5052949;28;20202;-75
2021/12/04 07:37:24;;;;;;;9.30;5.10;;;;;;;3.33;82.98;94166.41;5057050;28;20215;-75
2021/12/04 07:39:52;;;;;;;9.82;5.10;;;;;;;3.46;82.83;94149.56;5058265;28;20227;-74
2021/12/04 07:42:19;;;;;;;5.68;4.05;;;;;;;3.62;82.49;94141.28;5064590;28;20210;-76
2021/12/04 07:44:46;;;;;;;9.55;4.53;;;;;;;3.74;82.26;94128.19;5063768;28;20203;-76
2021/12/04 07:47:14;;;;;;;9.65;4.90;;;;;;;4.15;81.76;94123.63;5057041;28;20203;-76
2021/12/04 07:49:41;;;;;;;9.40;4.63;;;;;;;4.06;81.04;94119.28;5058430;28;20249;-76
2021/12/04 07:52:09;;;;;;;13.35;6.57;;;;;;;4.49;80.48;94111.66;5063925;28;20273;-76
2021/12/04 07:54:36;;;;;;;7.50;4.60;;;;;;;4.45;79.37;94105.31;5063627;28;20621;-77
2021/12/04 07:57:05;;;;;;;9.38;4.93;;;;;;;4.52;78.98;94106.47;5044335;28;20207;-78
2021/12/04 07:59:32;;;;;;;10.23;5.28;;;;;;;4.52;79.58;94094.94;5054627;28;20199;-76
2021/12/04 08:01:59;;;;;;;9.52;5.65;;;;;;;4.92;78.82;94107.41;5047161;28;20227;-75
2021/12/04 08:04:26;;;;;;;2.28;2.05;;;;;;;4.60;77.24;94096.94;5053904;28;20223;-75
2021/12/04 08:06:54;;;;;;;11.40;5.75;;;;;;;4.80;78.06;94085.72;5048490;28;20199;-76
2021/12/04 08:09:21;;;;;;;11.93;6.15;;;;;;;4.77;77.80;94091.72;5057184;28;20242;-75
2021/12/04 08:11:50;;;;;;;9.93;5.13;;;;;;;4.72;78.91;94078.41;5059474;28;20278;-74
2021/12/04 08:14:19;;;;;;;12.63;6.47;;;;;;;5.00;78.26;94085.22;5063335;28;20642;-75
2021/12/04 08:16:47;;;;;;;11.55;5.82;;;;;;;4.95;77.18;94088.03;5050436;28;20211;-75
2021/12/04 08:19:14;;;;;;;11.05;5.13;;;;;;;5.21;76.53;94082.03;5066964;28;20640;-75
2021/12/04 08:21:41;;;;;;;9.63;5.13;;;;;;;5.35;75.16;94090.81;5060773;28;20231;-75
2021/12/04 08:24:09;;;;;;;9.45;5.32;;;;;;;5.12;76.18;94089.25;5063811;28;20206;-73
2021/12/04 08:26:36;;;;;;;9.90;5.10;;;;;;;4.84;77.23;94100.09;5059806;28;20264;-75
2021/12/04 08:29:04;;;;;;;10.30;5.55;;;;;;;5.12;76.89;94110.72;5056718;28;20665;-74
2021/12/04 08:31:33;;;;;;;10.48;5.97;;;;;;;5.47;75.36;94101.75;5059449;28;20207;-73
2021/12/04 08:34:00;;;;;;;12.10;5.32;;;;;;;5.30;75.12;94099.78;5066177;28;20195;-73
2021/12/04 08:36:28;;;;;;;10.45;5.50;;;;;;;5.27;75.62;94095.03;5070398;28;20292;-76
2021/12/04 08:38:55;;;;;;;9.98;5.40;;;;;;;4.96;76.80;94094.97;5056993;28;20234;-74
2021/12/04 08:41:22;;;;;;;10.05;5.40;;;;;;;5.02;76.69;94092.97;5058160;28;20234;-74
2021/12/04 08:43:49;;;;;;;10.32;7.13;;;;;;;5.00;76.91;94085.22;5063557;28;20203;-73
2021/12/04 08:46:20;;;;;;;11.68;6.78;;;;;;;5.40;78.05;94081.84;5062067;28;20206;-76
2021/12/04 08:48:49;;;;;;;12.00;5.80;;;;;;;5.52;75.45;94077.47;5056408;28;20191;-76
2021/12/04 08:51:18;;;;;;;7.55;4.28;;;;;;;5.15;75.07;94077.91;5057517;28;20211;-74
2021/12/04 08:53:45;;;;;;;12.52;5.90;;;;;;;5.19;76.09;94076.19;5030401;28;20303;-74
2021/12/04 08:56:12;;;;;;;3.78;2.38;;;;;;;5.31;74.52;94079.13;5057125;28;20198;-74
2021/12/04 08:58:40;;;;;;;12.20;4.90;;;;;;;5.41;75.51;94068.09;5058943;28;20558;-74
2021/12/04 09:01:11;;;;;;;7.63;4.88;;;;;;;5.29;75.41;94067.88;5066420;28;20691;-76
2021/12/04 09:03:41;;;;;;;6.30;3.55;;;;;;;5.24;74.99;94066.09;5062264;28;20588;-73
2021/12/04 09:06:09;;;;;;;10.10;5.07;;;;;;;5.44;74.77;94067.50;5060475;28;20203;-73
2021/12/04 09:08:36;;;;;;;5.43;3.08;;;;;;;5.09;75.20;94079.13;5064371;28;20226;-74
2021/12/04 09:11:07;;;;;;;8.00;4.32;;;;;;;4.73;76.80;94068.47;5056043;28;20727;-74
2021/12/04 09:13:36;;;;;;;6.35;3.70;;;;;;;4.63;77.88;94080.22;5062843;28;20725;-74
2021/12/04 09:16:03;;;;;;;9.18;5.38;;;;;;;4.53;78.53;94070.50;5066609;28;20203;-76
2021/12/04 09:18:30;;;;;;;7.95;4.15;;;;;;;4.64;78.00;94076.47;5063491;28;20199;-75
2021/12/04 09:20:57;;;;;;;9.55;5.50;;;;;;;4.81;77.82;94078.44;5059773;28;20234;-75
2021/12/04 09:23:31;;;;;;;11.27;6.03;;;;;;;4.88;77.88;94071.59;5062828;28;20211;-75
2021/12/04 09:26:01;;;;;;;12.98;5.80;;;;;;;5.19;77.40;94073.53;5066841;28;20218;-76
2021/12/04 09:28:36;;;;;;;9.05;5.53;;;;;;;5.11;76.87;94084.97;5053699;28;20199;-75
2021/12/04 09:31:23;;;;;;;6.45;3.42;;;;;;;4.87;77.29;94085.28;5061020;28;20199;-75
2021/12/04 09:36:58;;;;;;;4.65;3.00;;;;;;;4.95;77.84;94082.66;5065965;28;20213;-75
2021/12/04 10:18:29;;;;;;;3.65;2.75;;;;;;;4.49;79.15;94074.91;5040285;28;20199;-72
2021/12/04 10:21:13;;;;;;;13.43;6.38;;;;;;;4.42;80.12;94079.88;5055862;28;20218;-74
2021/12/04 10:34:54;;;;;;;15.27;7.72;;;;;;;5.85;75.79;94039.50;5062823;28;20619;-73
2021/12/04 10:37:25;;;;;;;12.90;7.07;;;;;;;5.95;75.54;94036.56;5059107;28;20202;-73
2021/12/04 10:39:54;;;;;;;8.40;5.25;;;;;;;5.51;76.60;94040.97;5059962;28;20231;-73
2021/12/04 10:42:24;;;;;;;13.93;6.82;;;;;;;5.66;76.62;94032.50;5065736;28;20231;-74
2021/12/04 10:44:55;;;;;;;14.20;7.30;;;;;;;5.98;75.93;94038.63;5039205;28;20282;-75
2021/12/04 10:47:26;;;;;;;12.52;7.00;;;;;;;6.23;74.34;94042.47;5045623;28;20664;-73
2021/12/04 10:50:04;;;;;;;13.45;7.40;;;;;;;6.37;74.08;94051.97;5044395;28;20602;-73
2021/12/04 10:52:44;;;;;;;10.55;6.60;;;;;;;6.55;73.61;94050.09;5061552;28;20190;-73
2021/12/04 10:55:15;;;;;;;13.45;8.40;;;;;;;6.32;73.33;94048.63;5058674;28;20287;-72
2021/12/04 10:58:24;;;;;;;9.70;6.22;;;;;;;6.12;74.37;94044.66;5067982;28;20202;-74
2021/12/04 11:01:12;;;;;;;9.98;5.20;;;;;;;5.85;74.54;94050.25;5055809;28;20226;-74
2021/12/04 11:03:44;;;;;;;10.50;5.00;;;;;;;5.45;76.34;94047.59;5049638;28;20192;-73
2021/12/04 11:28:17;;;;;;;15.25;6.18;;;;;;;6.01;75.66;94038.00;5049013;28;20291;-71
2021/12/04 11:36:29;;;;;;;8.13;4.68;;;;;;;5.69;77.08;94033.78;5050377;28;20719;-74
2021/12/04 11:39:08;;;;;;;24.60;3.42;;;;;;;5.49;77.00;94037.78;5057694;28;20231;-71
2021/12/04 11:41:38;;;;;;;13.70;8.07;;;;;;;5.74;78.01;94033.59;5058308;28;20225;-74
2021/12/04 11:44:08;;;;;;;15.50;8.10;;;;;;;5.99;76.66;94030.25;5058688;28;20199;-77
2021/12/04 11:46:45;;;;;;;14.55;8.32;;;;;;;5.97;76.33;94031.66;5057815;28;20200;-74
2021/12/04 11:49:17;;;;;;;15.48;7.30;;;;;;;5.98;76.28;94027.88;5062088;28;20202;-75
2021/12/04 11:51:58;;;;;;;19.73;9.93;;;;;;;6.05;76.66;94017.44;5064561;28;20187;-76
2021/12/04 11:54:27;;;;;;;16.55;8.40;;;;;;;6.17;76.20;94020.28;5062889;28;20325;-74
2021/12/04 11:56:59;;;;;;;17.13;9.40;;;;;;;6.15;76.24;94019.81;5057667;28;20207;-76
2021/12/04 11:59:28;;;;;;;20.63;10.65;;;;;;;5.91;76.48;94035.59;5055861;28;20219;-75
2021/12/04 12:01:56;;;;;;;19.77;9.93;;;;;;;5.99;76.71;94034.84;5038987;28;20223;-75
2021/12/04 12:04:33;;;;;;;15.85;8.27;;;;;;;6.04;76.44;94037.34;5050252;28;20238;-75
2021/12/04 12:07:10;;;;;;;18.88;10.32;;;;;;;6.08;76.02;94024.88;5050002;28;20554;-74
2021/12/04 12:09:39;;;;;;;19.52;10.52;;;;;;;6.31;75.23;94023.63;5038782;28;20221;-75
2021/12/04 12:12:08;;;;;;;21.13;9.98;;;;;;;5.95;76.22;94031.97;5050895;28;20264;-75
2021/12/04 12:14:39;;;;;;;18.75;9.98;;;;;;;6.26;75.79;94023.00;5062011;28;20557;-74
2021/12/04 12:17:06;;;;;;;15.90;9.32;;;;;;;6.33;75.33;94021.44;5049440;28;20198;-75
2021/12/04 12:19:40;;;;;;;22.88;9.70;;;;;;;5.88;75.85;94030.81;5049214;28;20188;-74
2021/12/04 12:22:15;;;;;;;19.80;10.77;;;;;;;5.83;76.53;94026.38;5030269;28;20644;-73
2021/12/04 12:27:33;;;;;;;22.48;11.55;;;;;;;5.58;77.95;94030.56;5060189;28;20267;-74
2021/12/04 12:33:17;;;;;;;19.13;9.50;;;;;;;5.77;77.60;94045.63;4998583;28;20216;-73
2021/12/04 12:36:06;;;;;;;24.52;9.68;;;;;;;5.95;76.99;94050.78;4994279;28;20220;-73
2021/12/04 12:38:43;;;;;;;19.83;8.75;;;;;;;6.25;76.59;94042.94;5034229;28;20590;-73
2021/12/04 12:41:13;;;;;;;21.33;9.32;;;;;;;6.20;76.13;94030.44;5060764;28;20214;-72
2021/12/04 12:43:59;;;;;;;18.40;9.02;;;;;;;6.55;75.09;94015.13;5056835;28;20297;-75
2021/12/04 12:46:37;;;;;;;17.73;9.82;;;;;;;6.72;74.20;94017.00;5055236;28;20257;-75
2021/12/04 12:49:05;;;;;;;19.95;9.75;;;;;;;6.50;74.83;94023.34;5040121;28;20290;-76
2021/12/04 12:51:37;;;;;;;16.02;9.23;;;;;;;6.60;74.47;94022.22;5048403;28;20210;-76
2021/12/04 12:54:07;;;;;;;28.65;11.45;;;;;;;6.79;73.84;94020.00;5048984;28;20536;-74
2021/12/04 12:56:37;;;;;;;32.60;14.75;;;;;;;6.69;74.02;94021.13;5046663;28;20196;-74
2021/12/04 12:59:07;;;;;;;18.08;10.70;;;;;;;6.76;74.76;94026.03;5050861;28;20223;-76
2021/12/04 13:12:49;;;;;;;21.80;11.70;;;;;;;6.68;74.46;94046.47;5063499;28;20207;-74
2021/12/04 13:15:36;;;;;;;23.23;14.93;;;;;;;6.76;73.89;94042.16;5061193;28;20206;-74
2021/12/04 13:18:11;;;;;;;24.95;14.52;;;;;;;6.66;74.17;94047.88;5044067;28;20249;-74
2021/12/04 13:20:38;;;;;;;19.92;9.98;;;;;;;6.60;74.57;94041.84;5055818;28;20203;-74
2021/12/04 13:23:12;;;;;;;18.17;9.65;;;;;;;6.37;75.40;94049.28;5049777;28;20227;-74
2021/12/04 13:25:39;;;;;;;16.33;9.18;;;;;;;6.42;75.41;94038.34;5063366;28;20199;-73
2021/12/04 13:30:44;;;;;;;19.05;10.52;;;;;;;6.30;75.73;94042.78;5053839;28;20183;-72
2021/12/04 13:33:11;;;;;;;19.50;10.73;;;;;;;6.28;75.23;94037.72;5058389;28;20294;-74
2021/12/04 13:35:38;;;;;;;18.58;10.40;;;;;;;6.21;75.68;94055.44;5065012;28;20199;-73
2021/12/04 13:38:05;;;;;;;19.30;11.43;;;;;;;6.00;76.43;94047.16;5056208;28;20265;-73
2021/12/04 13:40:33;;;;;;;19.35;10.75;;;;;;;6.30;75.82;94038.19;5054076;28;20191;-75
2021/12/04 13:43:00;;;;;;;21.45;10.73;;;;;;;6.36;75.32;94034.25;5052032;28;20238;-73
2021/12/04 13:45:28;;;;;;;20.45;10.40;;;;;;;6.35;75.13;94038.03;5055415;28;20205;-73
2021/12/04 13:47:57;;;;;;;19.90;10.23;;;;;;;6.26;75.87;94034.56;5060809;28;20214;-73
2021/12/04 13:50:46;;;;;;;45.53;23.23;;;;;;;6.34;75.81;94041.84;5066855;28;20206;-73
2021/12/04 13:53:20;;;;;;;19.33;10.13;;;;;;;6.50;75.18;94036.00;5067005;28;20231;-73
2021/12/04 13:55:52;;;;;;;17.70;9.57;;;;;;;6.28;75.45;94026.97;5064092;28;20260;-73
2021/12/04 13:58:20;;;;;;;21.35;10.68;;;;;;;6.41;75.44;94028.72;5063700;28;20690;-72
2021/12/04 14:00:47;;;;;;;23.27;10.85;;;;;;;6.50;75.45;94027.94;5064601;28;20227;-74
2021/12/04 14:03:14;;;;;;;16.73;9.65;;;;;;;6.50;74.98;94034.09;5059303;28;20231;-74
2021/12/04 14:05:41;;;;;;;17.67;10.00;;;;;;;6.51;75.49;94018.75;5060799;28;20221;-76
2021/12/04 14:08:10;;;;;;;20.80;11.90;;;;;;;6.68;75.39;94016.06;5066089;28;20251;-74
2021/12/04 14:10:41;;;;;;;24.45;14.70;;;;;;;6.72;75.64;94014.28;5064635;28;20683;-75
2021/12/04 14:13:11;;;;;;;23.02;13.73;;;;;;;6.58;75.18;94002.91;5059375;28;20241;-75
2021/12/04 14:15:43;;;;;;;16.35;9.25;;;;;;;6.47;75.83;94013.19;5058881;28;20693;-74
2021/12/04 14:18:13;;;;;;;19.55;10.05;;;;;;;6.57;75.56;94009.41;5065639;28;20642;-75
2021/12/04 14:20:43;;;;;;;23.73;15.65;;;;;;;6.42;75.97;94011.44;5039496;28;20212;-75